Time;durP1;ratioP1;P1;durP2;ratioP2;P2;SDS_P1;SDS_P2;PMS_P1;PMS_P2;Temp;Humidity;BMP_temperature;BMP_pressure;BME280_temperature;BME280_humidity;BME280_pressure;Samples;Min_cycle;Max_cycle;Signal;HPM_P1;HPM_P2
2023/11/03 00:00:54;;;;;;;0.20;0.20;;;;;;;21.02;63.79;98705.72;4994385;28;20437;-86
2023/11/03 00:03:19;;;;;;;0.20;0.20;;;;;;;21.11;64.56;98724.72;5011859;28;20026;-86
2023/11/03 00:05:45;;;;;;;0.20;0.20;;;;;;;21.01;67.76;98714.66;4994438;28;20049;-85
2023/11/03 00:08:10;;;;;;;0.20;0.20;;;;;;;20.95;68.72;98725.03;4994345;28;20053;-86
2023/11/03 00:10:37;;;;;;;0.20;0.20;;;;;;;20.82;72.18;98739.28;4994265;28;20026;-85
2023/11/03 00:13:03;;;;;;;0.20;0.20;;;;;;;20.63;76.41;98733.59;4994069;28;20116;-85
2023/11/03 00:15:29;;;;;;;0.20;0.20;;;;;;;20.54;79.25;98729.94;5011677;28;20092;-85
2023/11/03 00:17:57;;;;;;;0.20;0.20;;;;;;;20.64;80.10;98708.94;4993895;28;20049;-86
2023/11/03 00:20:23;;;;;;;0.20;0.20;;;;;;;20.46;81.94;98706.03;4993876;28;20164;-85
2023/11/03 00:22:48;;;;;;;0.20;0.20;;;;;;;20.47;83.57;98702.00;4993974;28;20120;-86
2023/11/03 00:25:14;;;;;;;0.20;0.20;;;;;;;20.42;85.28;98697.72;4994142;28;20405;-86
2023/11/03 00:27:44;;;;;;;0.20;0.20;;;;;;;20.33;86.71;98684.31;4993757;28;20389;-85
2023/11/03 00:30:12;;;;;;;0.20;0.20;;;;;;;20.35;87.25;98687.50;4993789;28;20658;-86
2023/11/03 00:32:37;;;;;;;0.20;0.20;;;;;;;20.12;87.16;98648.47;5011524;28;20026;-86
2023/11/03 00:35:08;;;;;;;0.20;0.20;;;;;;;20.38;84.91;98674.47;5011471;28;20120;-86
2023/11/03 00:37:34;;;;;;;0.20;0.20;;;;;;;20.28;84.17;98642.56;5011370;28;20025;-85
2023/11/03 00:40:00;;;;;;;0.20;0.20;;;;;;;20.47;83.55;98676.56;5010548;28;20040;-86
2023/11/03 00:42:26;;;;;;;0.20;0.20;;;;;;;20.48;84.44;98666.84;5011442;28;20390;-86
2023/11/03 00:44:51;;;;;;;0.20;0.20;;;;;;;20.45;85.04;98667.72;5011197;28;20053;-86
2023/11/03 00:47:17;;;;;;;0.20;0.20;;;;;;;20.38;85.30;98630.06;5010895;28;20026;-84
2023/11/03 00:49:42;;;;;;;0.20;0.20;;;;;;;20.35;86.64;98631.00;5011286;28;20030;-85
2023/11/03 00:52:08;;;;;;;0.20;0.20;;;;;;;20.35;87.77;98616.88;4993711;28;20339;-85
2023/11/03 00:54:35;;;;;;;0.20;0.20;;;;;;;20.41;88.62;98622.69;4993531;28;20037;-85
2023/11/03 00:57:00;;;;;;;0.20;0.20;;;;;;;20.35;89.34;98602.75;4993063;28;20116;-86
2023/11/03 00:59:26;;;;;;;0.20;0.20;;;;;;;20.50;89.88;98610.63;5010947;28;20113;-85
2023/11/03 01:01:51;;;;;;;0.20;0.20;;;;;;;20.38;90.40;98569.97;4993353;28;20026;-86
2023/11/03 01:04:17;;;;;;;0.20;0.20;;;;;;;20.43;91.12;98566.50;5011063;28;20028;-86
2023/11/03 01:06:42;;;;;;;0.20;0.20;;;;;;;20.30;92.10;98549.72;4993358;28;20108;-85
2023/11/03 01:09:09;;;;;;;0.20;0.20;;;;;;;20.39;92.31;98560.22;4993282;28;20499;-85
2023/11/03 01:11:36;;;;;;;0.20;0.20;;;;;;;20.46;91.66;98545.03;4993546;28;20018;-85
2023/11/03 01:14:04;;;;;;;0.20;0.20;;;;;;;20.51;91.77;98519.00;4993385;28;20428;-86
2023/11/03 01:16:31;;;;;;;0.20;0.20;;;;;;;20.56;92.16;98507.06;5011110;28;20026;-86
2023/11/03 01:18:56;;;;;;;0.20;0.20;;;;;;;20.58;92.63;98516.63;4993436;28;20030;-86
2023/11/03 01:21:22;;;;;;;0.20;0.20;;;;;;;20.55;92.32;98472.38;4993426;28;20489;-87
2023/11/03 01:23:48;;;;;;;0.20;0.20;;;;;;;20.67;91.25;98443.19;5011256;28;20022;-86
2023/11/03 01:26:14;;;;;;;0.20;0.20;;;;;;;20.62;90.27;98401.44;5011011;28;20482;-88
2023/11/03 01:28:40;;;;;;;0.20;0.20;;;;;;;20.73;89.29;98398.09;4993757;28;20029;-88
2023/11/03 01:31:10;;;;;;;0.20;0.20;;;;;;;20.76;89.11;98399.97;4998726;28;20052;-88
2023/11/03 01:33:35;;;;;;;0.20;0.20;;;;;;;20.72;88.87;98365.47;5013337;28;20029;-88
2023/11/03 01:36:04;;;;;;;0.20;0.20;;;;;;;20.72;89.26;98331.56;5013269;28;20025;-88
2023/11/03 01:38:31;;;;;;;0.20;0.20;;;;;;;20.75;89.50;98322.09;5013101;28;20037;-88
2023/11/03 01:40:57;;;;;;;0.20;0.20;;;;;;;20.64;89.84;98293.56;5031045;28;20044;-89
2023/11/03 01:43:22;;;;;;;0.20;0.20;;;;;;;20.73;89.31;98315.38;5014018;28;20036;-88
2023/11/03 01:45:48;;;;;;;0.20;0.20;;;;;;;20.81;87.83;98308.88;5013640;28;20026;-88
2023/11/03 01:48:14;;;;;;;0.20;0.20;;;;;;;20.81;88.18;98300.41;5013139;28;20033;-88
2023/11/03 01:50:40;;;;;;;0.20;0.20;;;;;;;20.54;90.48;98266.63;5013916;28;20607;-86
2023/11/03 01:53:06;;;;;;;0.20;0.20;;;;;;;20.52;92.76;98263.50;5016400;28;20054;-87
2023/11/03 01:55:32;;;;;;;0.20;0.20;;;;;;;20.69;88.81;98256.19;5015086;28;20113;-86
2023/11/03 01:57:58;;;;;;;0.20;0.20;;;;;;;20.77;88.05;98234.78;5014317;28;20556;-88
2023/11/03 02:00:24;;;;;;;0.20;0.20;;;;;;;20.72;88.99;98224.16;4997206;28;20030;-88
2023/11/03 02:02:53;;;;;;;0.20;0.20;;;;;;;20.61;88.67;98195.63;4997197;28;20064;-89
2023/11/03 02:05:18;;;;;;;0.20;0.20;;;;;;;20.46;88.38;98163.69;4997068;28;20103;-88
2023/11/03 02:07:44;;;;;;;0.20;0.20;;;;;;;20.57;87.12;98195.03;4997058;28;20034;-88
2023/11/03 02:10:09;;;;;;;0.20;0.20;;;;;;;20.63;83.79;98202.38;4997411;28;20172;-88
2023/11/03 02:12:34;;;;;;;0.20;0.20;;;;;;;20.73;80.08;98193.88;4997660;28;20030;-88
2023/11/03 02:15:00;;;;;;;0.20;0.20;;;;;;;20.95;80.86;98250.88;5015030;28;20085;-89
2023/11/03 02:17:26;;;;;;;0.20;0.20;;;;;;;20.78;83.58;98188.34;5015110;28;20026;-88
2023/11/03 02:19:52;;;;;;;0.20;0.20;;;;;;;20.67;86.45;98199.38;4997075;28;20518;-87
2023/11/03 02:22:17;;;;;;;0.20;0.20;;;;;;;20.79;89.24;98232.28;4997340;28;20034;-89
2023/11/03 02:24:43;;;;;;;0.20;0.20;;;;;;;20.46;92.19;98220.19;4996995;28;20022;-88
2023/11/03 02:27:08;;;;;;;0.20;0.20;;;;;;;20.35;97.06;98240.47;4997110;28;20637;-90
2023/11/03 02:29:34;;;;;;;0.20;0.20;;;;;;;20.32;98.19;98250.66;4996834;28;20026;-89
2023/11/03 02:32:00;;;;;;;0.20;0.20;;;;;;;20.22;97.45;98215.25;4996483;28;20470;-89
2023/11/03 02:34:26;;;;;;;0.20;0.20;;;;;;;20.21;98.12;98185.44;4998311;28;20041;-88
2023/11/03 02:36:52;;;;;;;0.20;0.20;;;;;;;20.15;100.00;98224.84;4997142;28;20088;-89
2023/11/03 02:45:43;;;;;;;0.20;0.20;;;;;;;19.48;100.00;98259.69;5021001;28;20052;-89
2023/11/03 02:48:09;;;;;;;0.20;0.20;;;;;;;19.45;100.00;98271.16;4997000;28;20025;-88
2023/11/03 02:50:34;;;;;;;0.20;0.20;;;;;;;19.05;100.00;98252.28;4997315;28;20049;-88
2023/11/03 02:52:59;;;;;;;0.20;0.20;;;;;;;18.97;100.00;98236.94;5013454;28;20068;-87
2023/11/03 02:55:25;;;;;;;0.20;0.20;;;;;;;18.86;100.00;98192.31;4995859;28;20029;-87
2023/11/03 02:57:50;;;;;;;0.20;0.20;;;;;;;18.88;100.00;98222.84;4995803;28;20026;-87
2023/11/03 03:00:16;;;;;;;0.20;0.20;;;;;;;18.78;100.00;98197.44;4994984;28;20115;-85
2023/11/03 03:02:42;;;;;;;0.20;0.20;;;;;;;19.20;100.00;98227.88;4996044;28;20030;-88
2023/11/03 03:05:07;;;;;;;0.20;0.20;;;;;;;19.34;100.00;98182.16;4996831;28;20122;-88
2023/11/03 03:07:32;;;;;;;0.20;0.20;;;;;;;19.07;100.00;98174.50;4995855;28;20033;-87
2023/11/03 03:09:58;;;;;;;0.20;0.20;;;;;;;19.03;100.00;98144.91;5012965;28;20535;-86
2023/11/03 03:12:23;;;;;;;0.20;0.20;;;;;;;19.05;100.00;98193.09;5012917;28;20022;-85
2023/11/03 03:14:49;;;;;;;0.20;0.20;;;;;;;19.12;100.00;98226.63;4995120;28;20397;-86
2023/11/03 03:17:14;;;;;;;0.20;0.20;;;;;;;18.80;100.00;98223.13;4995851;28;20013;-88
2023/11/03 03:19:39;;;;;;;0.20;0.20;;;;;;;18.56;100.00;98225.69;5013505;28;20647;-87
2023/11/03 03:22:05;;;;;;;0.20;0.20;;;;;;;18.66;100.00;98242.63;4995615;28;20034;-88
2023/11/03 03:24:30;;;;;;;0.20;0.20;;;;;;;18.65;100.00;98226.97;4994841;28;20018;-86
2023/11/03 03:26:55;;;;;;;0.20;0.20;;;;;;;18.59;100.00;98240.88;4995320;28;20042;-88
2023/11/03 03:29:22;;;;;;;0.20;0.20;;;;;;;19.52;100.00;98262.38;4997566;28;20028;-84
2023/11/03 03:31:56;;;;;;;0.20;0.20;;;;;;;19.50;100.00;98233.84;4998019;28;20661;-86
2023/11/03 03:41:13;;;;;;;0.20;0.20;;;;;;;19.67;100.00;98291.56;5035551;28;20043;-89
2023/11/03 03:43:39;;;;;;;0.20;0.20;;;;;;;19.60;100.00;98284.19;5015737;28;20029;-87
2023/11/03 03:46:05;;;;;;;0.20;0.20;;;;;;;19.48;100.00;98256.09;5014731;28;20531;-89
2023/11/03 03:48:30;;;;;;;0.20;0.20;;;;;;;19.50;100.00;98274.13;5014934;28;20060;-88
2023/11/03 03:50:55;;;;;;;0.20;0.20;;;;;;;19.34;100.00;98271.63;5014749;28;20400;-85
2023/11/03 03:53:21;;;;;;;0.20;0.20;;;;;;;19.29;100.00;98275.84;5013852;28;20112;-86
2023/11/03 03:55:46;;;;;;;0.20;0.20;;;;;;;19.29;100.00;98260.94;5010982;28;20022;-88
2023/11/03 03:58:13;;;;;;;0.20;0.20;;;;;;;19.41;100.00;98278.97;4995459;28;20029;-89
2023/11/03 04:00:38;;;;;;;0.20;0.20;;;;;;;19.30;100.00;98260.47;4979680;28;20437;-89
2023/11/03 04:03:04;;;;;;;0.20;0.20;;;;;;;19.27;100.00;98244.47;4995388;28;20022;-89
2023/11/03 04:05:29;;;;;;;0.20;0.20;;;;;;;19.51;100.00;98255.16;4995812;28;20083;-89
2023/11/03 04:08:04;;;;;;;0.20;0.20;;;;;;;19.62;100.00;98249.88;4996394;28;20026;-89
2023/11/03 04:10:29;;;;;;;0.20;0.20;;;;;;;19.34;100.00;98224.47;4996356;28;20034;-89
2023/11/03 04:12:54;;;;;;;0.20;0.20;;;;;;;19.56;100.00;98229.94;4995083;28;20116;-89
2023/11/03 04:15:26;;;;;;;0.20;0.20;;;;;;;19.79;100.00;98228.53;4996058;28;20030;-88
2023/11/03 04:17:52;;;;;;;0.20;0.20;;;;;;;19.75;100.00;98213.00;4996268;28;20029;-88
2023/11/03 04:20:18;;;;;;;0.20;0.20;;;;;;;19.96;100.00;98212.03;4995777;28;20033;-89
2023/11/03 04:22:43;;;;;;;0.20;0.20;;;;;;;19.94;100.00;98177.84;4979329;28;20029;-89
2023/11/03 04:25:08;;;;;;;0.20;0.20;;;;;;;19.90;100.00;98163.13;4995849;28;20037;-88
2023/11/03 04:27:34;;;;;;;0.20;0.20;;;;;;;20.07;100.00;98166.34;4995104;28;20457;-88
2023/11/03 04:30:00;;;;;;;0.20;0.20;;;;;;;20.12;100.00;98131.84;4995030;28;20029;-89
2023/11/03 04:32:26;;;;;;;0.20;0.20;;;;;;;20.14;100.00;98149.09;4995191;28;20065;-88
2023/11/03 04:34:52;;;;;;;0.20;0.20;;;;;;;20.17;100.00;98134.00;4995118;28;20387;-89
2023/11/03 04:37:44;;;;;;;0.20;0.20;;;;;;;20.06;100.00;98230.50;4996011;28;20065;-88
2023/11/03 05:29:41;;;;;;;0.20;0.20;;;;;;;17.70;92.83;98356.78;5170201;23;20046;-88
2023/11/03 05:32:07;;;;;;;0.20;0.20;;;;;;;17.60;90.48;98352.31;4999315;28;20038;-86
2023/11/03 05:34:36;;;;;;;0.20;0.20;;;;;;;17.38;97.68;98375.53;5015894;28;20481;-89
2023/11/03 05:37:01;;;;;;;0.20;0.20;;;;;;;17.15;100.00;98365.47;4998471;28;20030;-88
2023/11/03 05:39:26;;;;;;;0.20;0.20;;;;;;;16.81;100.00;98342.88;4997220;28;20481;-88
2023/11/03 05:41:52;;;;;;;0.28;0.28;;;;;;;16.63;100.00;98343.41;4997883;28;20042;-87
2023/11/03 05:44:18;;;;;;;0.20;0.20;;;;;;;16.53;100.00;98344.53;4998631;28;20025;-88
2023/11/03 05:46:43;;;;;;;0.20;0.20;;;;;;;16.59;100.00;98371.59;5015877;28;20022;-88
2023/11/03 05:49:09;;;;;;;0.20;0.20;;;;;;;16.42;100.00;98361.69;4998204;28;20022;-88
2023/11/03 05:51:35;;;;;;;0.20;0.20;;;;;;;16.47;100.00;98355.53;5016302;28;20033;-88
2023/11/03 05:54:05;;;;;;;0.20;0.20;;;;;;;16.45;100.00;98360.78;4999338;28;20116;-88
2023/11/03 05:56:35;;;;;;;0.30;0.30;;;;;;;16.37;100.00;98360.22;5002138;28;20022;-84
2023/11/03 05:59:00;;;;;;;0.30;0.30;;;;;;;16.43;100.00;98352.03;4999644;28;20026;-88
2023/11/03 06:01:25;;;;;;;0.30;0.30;;;;;;;16.41;100.00;98368.53;4998242;28;20084;-88
2023/11/03 06:03:51;;;;;;;0.20;0.20;;;;;;;16.33;100.00;98361.56;4997596;28;20367;-88
2023/11/03 06:06:16;;;;;;;0.20;0.20;;;;;;;16.41;100.00;98376.97;4997415;28;20022;-88
2023/11/03 06:08:42;;;;;;;0.30;0.30;;;;;;;16.42;100.00;98386.97;4997445;28;20034;-89
2023/11/03 06:11:08;;;;;;;0.30;0.30;;;;;;;16.53;100.00;98417.53;5014576;28;20478;-87
2023/11/03 06:13:37;;;;;;;0.30;0.30;;;;;;;16.60;100.00;98412.47;4996910;28;20095;-87
2023/11/03 06:16:04;;;;;;;0.20;0.20;;;;;;;16.67;100.00;98429.13;4996731;28;20453;-87
2023/11/03 06:18:30;;;;;;;0.20;0.20;;;;;;;16.79;100.00;98426.81;4996770;28;20072;-88
2023/11/03 06:20:55;;;;;;;0.20;0.20;;;;;;;16.62;100.00;98414.81;4996550;28;20065;-88
2023/11/03 06:23:20;;;;;;;0.20;0.20;;;;;;;16.59;100.00;98404.50;4997028;28;20433;-88
2023/11/03 06:25:47;;;;;;;0.20;0.20;;;;;;;16.54;100.00;98386.19;5014939;28;20030;-87
2023/11/03 06:28:12;;;;;;;0.20;0.20;;;;;;;16.71;100.00;98401.72;5008528;28;20073;-88
2023/11/03 06:30:38;;;;;;;0.20;0.20;;;;;;;16.74;100.00;98403.66;4994512;28;20483;-88
2023/11/03 06:33:04;;;;;;;0.20;0.20;;;;;;;16.93;100.00;98440.41;4976880;28;20500;-88
2023/11/03 06:35:30;;;;;;;0.20;0.20;;;;;;;16.84;100.00;98424.22;4976552;28;20402;-88
2023/11/03 06:37:56;;;;;;;0.20;0.20;;;;;;;16.87;100.00;98428.94;4993736;28;20033;-88
2023/11/03 06:40:22;;;;;;;0.20;0.20;;;;;;;16.66;100.00;98405.06;4993670;28;20038;-88
2023/11/03 06:42:47;;;;;;;0.20;0.20;;;;;;;16.77;100.00;98416.78;4976474;28;20495;-87
2023/11/03 06:45:12;;;;;;;0.20;0.20;;;;;;;16.66;100.00;98418.31;4994230;28;20057;-88
2023/11/03 06:47:38;;;;;;;0.25;0.25;;;;;;;16.79;100.00;98418.38;4994008;28;20030;-87
2023/11/03 06:50:04;;;;;;;0.20;0.20;;;;;;;16.83;100.00;98413.44;4976407;28;20543;-86
2023/11/03 06:52:30;;;;;;;0.20;0.20;;;;;;;16.88;100.00;98440.97;4994091;28;20486;-88
2023/11/03 06:54:56;;;;;;;0.30;0.30;;;;;;;16.75;100.00;98410.84;4976280;28;20027;-88
2023/11/03 06:57:22;;;;;;;0.20;0.20;;;;;;;16.72;100.00;98403.31;4977074;28;20029;-88
2023/11/03 06:59:48;;;;;;;0.30;0.30;;;;;;;16.61;100.00;98425.28;4977341;28;20030;-88
2023/11/03 07:02:14;;;;;;;0.20;0.20;;;;;;;16.56;100.00;98394.16;4977112;28;20633;-88
2023/11/03 07:04:40;;;;;;;0.20;0.20;;;;;;;16.41;100.00;98385.38;4977100;28;20054;-88
2023/11/03 07:07:11;;;;;;;0.30;0.30;;;;;;;16.51;100.00;98401.09;4978300;28;20033;-87
2023/11/03 07:09:37;;;;;;;0.20;0.20;;;;;;;16.36;100.00;98383.13;4977830;28;20035;-87
2023/11/03 07:12:05;;;;;;;0.20;0.20;;;;;;;16.45;100.00;98378.41;4975956;28;20041;-88
2023/11/03 07:14:31;;;;;;;0.20;0.20;;;;;;;16.62;100.00;98339.00;4976133;28;20019;-87
2023/11/03 07:16:57;;;;;;;0.20;0.20;;;;;;;16.55;100.00;98350.47;4976521;28;20029;-87
2023/11/03 07:19:22;;;;;;;0.20;0.20;;;;;;;16.69;100.00;98350.81;4975621;28;20022;-86
2023/11/03 07:21:52;;;;;;;0.20;0.20;;;;;;;16.95;100.00;98376.16;4975617;28;20055;-87
2023/11/03 07:24:21;;;;;;;0.20;0.20;;;;;;;16.90;100.00;98369.06;4975456;28;20080;-86
2023/11/03 07:26:50;;;;;;;0.30;0.30;;;;;;;17.19;100.00;98388.59;4975504;28;20026;-87
2023/11/03 07:29:16;;;;;;;0.20;0.20;;;;;;;17.44;100.00;98387.78;4992734;28;20141;-86
2023/11/03 07:31:42;;;;;;;0.20;0.20;;;;;;;17.53;100.00;98381.47;4977714;28;20034;-86
2023/11/03 07:34:08;;;;;;;0.20;0.20;;;;;;;17.58;100.00;98406.22;4974764;28;20030;-87
2023/11/03 07:36:34;;;;;;;0.20;0.20;;;;;;;17.42;100.00;98384.66;4974916;28;20099;-86
2023/11/03 07:38:59;;;;;;;0.20;0.20;;;;;;;17.45;100.00;98378.09;4974861;28;20065;-86
2023/11/03 07:41:25;;;;;;;0.20;0.20;;;;;;;17.25;100.00;98357.91;4975319;28;20038;-86
2023/11/03 07:43:54;;;;;;;0.20;0.20;;;;;;;17.60;100.00;98417.78;4975381;28;20080;-87
2023/11/03 07:46:19;;;;;;;0.20;0.20;;;;;;;17.59;100.00;98424.66;4993014;28;20034;-86
2023/11/03 07:48:46;;;;;;;0.20;0.20;;;;;;;17.73;100.00;98429.81;4974924;28;20520;-86
2023/11/03 07:51:11;;;;;;;0.20;0.20;;;;;;;17.82;100.00;98437.56;4975440;28;20046;-85
2023/11/03 07:53:36;;;;;;;0.30;0.30;;;;;;;17.70;100.00;98436.31;4975509;28;20026;-87
2023/11/03 07:56:02;;;;;;;0.20;0.20;;;;;;;17.79;100.00;98436.44;4975443;28;20030;-88
2023/11/03 07:58:28;;;;;;;0.20;0.20;;;;;;;17.62;100.00;98422.94;4976289;28;20031;-88
2023/11/03 08:00:57;;;;;;;0.20;0.20;;;;;;;17.74;100.00;98441.88;4975953;28;20026;-87
2023/11/03 08:06:30;;;;;;;0.20;0.20;;;;;;;17.87;100.00;98439.78;5004518;28;20042;-83
2023/11/03 08:08:56;;;;;;;0.20;0.20;;;;;;;17.88;100.00;98435.72;4980446;28;20552;-85
2023/11/03 08:11:23;;;;;;;0.20;0.20;;;;;;;17.66;99.53;98398.31;4966044;28;20030;-84
2023/11/03 08:13:50;;;;;;;0.20;0.20;;;;;;;17.92;99.41;98413.13;4996715;28;20478;-85
2023/11/03 08:16:15;;;;;;;0.20;0.20;;;;;;;17.94;99.72;98424.69;4978156;28;20030;-87
2023/11/03 08:18:42;;;;;;;0.30;0.30;;;;;;;18.01;98.87;98422.44;4976276;28;20427;-88
2023/11/03 08:21:08;;;;;;;0.20;0.20;;;;;;;18.18;97.47;98459.63;4980948;28;20030;-84
2023/11/03 08:50:58;;;;;;;0.20;0.20;;;;;;;15.27;100.00;98436.03;5538075;22;20038;-84
2023/11/03 08:53:45;;;;;;;0.30;0.30;;;;;;;15.72;100.00;98495.03;5033458;28;20040;-84
2023/11/03 08:56:14;;;;;;;0.28;0.28;;;;;;;16.03;100.00;98508.69;5032114;28;20030;-84
2023/11/03 08:58:41;;;;;;;0.20;0.20;;;;;;;15.96;100.00;98470.38;5018401;28;20014;-84
2023/11/03 09:01:13;;;;;;;0.20;0.20;;;;;;;16.31;100.00;98467.88;5001904;28;20033;-84
2023/11/03 09:09:11;;;;;;;0.20;0.20;;;;;;;17.06;100.00;98561.25;5014732;28;20057;-84
2023/11/03 09:12:14;;;;;;;0.20;0.20;;;;;;;16.74;100.00;98527.22;4999565;28;20030;-83
2023/11/03 09:14:56;;;;;;;0.20;0.20;;;;;;;16.72;100.00;98540.94;5016580;28;20038;-84
2023/11/03 09:18:05;;;;;;;0.30;0.30;;;;;;;16.91;100.00;98597.38;4984995;28;20014;-83
2023/11/03 09:58:07;;;;;;;0.20;0.20;;;;;;;17.05;88.23;98641.94;5091935;23;20046;-88
2023/11/03 10:00:34;;;;;;;0.20;0.20;;;;;;;16.94;88.06;98638.66;5010921;28;20029;-87
2023/11/03 10:06:23;;;;;;;0.20;0.20;;;;;;;17.17;86.65;98652.44;5013998;28;20118;-87
2023/11/03 10:08:51;;;;;;;0.20;0.20;;;;;;;17.15;86.89;98651.28;5009342;28;20478;-87
2023/11/03 10:11:17;;;;;;;0.20;0.20;;;;;;;17.00;88.36;98646.09;4991788;28;20034;-87
2023/11/03 10:13:42;;;;;;;0.20;0.20;;;;;;;17.15;87.90;98648.47;5014052;28;20033;-87
2023/11/03 10:16:08;;;;;;;0.20;0.20;;;;;;;17.38;87.22;98655.88;4996154;28;20026;-87
2023/11/03 10:18:37;;;;;;;0.20;0.20;;;;;;;17.62;86.77;98665.59;4996746;28;20510;-87
2023/11/03 10:21:05;;;;;;;0.20;0.20;;;;;;;17.54;85.52;98641.72;5014013;28;20026;-87
2023/11/03 10:23:37;;;;;;;0.20;0.20;;;;;;;17.59;84.79;98648.84;4996278;28;20495;-87
2023/11/03 10:26:03;;;;;;;0.20;0.20;;;;;;;17.48;82.61;98637.91;4995753;28;20017;-87
2023/11/03 10:28:31;;;;;;;0.20;0.20;;;;;;;17.48;83.34;98615.41;4996316;28;20028;-87
2023/11/03 10:31:04;;;;;;;0.20;0.20;;;;;;;17.66;85.12;98626.09;4995392;28;20057;-86
2023/11/03 10:33:29;;;;;;;0.20;0.20;;;;;;;17.64;84.58;98625.78;4995310;28;20232;-87
2023/11/03 10:35:55;;;;;;;0.20;0.20;;;;;;;17.76;84.75;98647.53;4994598;28;20029;-87
2023/11/03 10:38:22;;;;;;;0.20;0.20;;;;;;;17.69;86.38;98642.09;4997963;28;20041;-86
2023/11/03 10:40:48;;;;;;;0.20;0.20;;;;;;;17.68;87.64;98655.34;4998131;28;20050;-85
2023/11/03 10:43:14;;;;;;;0.20;0.20;;;;;;;17.85;88.47;98652.50;4998122;28;20121;-88
2023/11/03 10:46:01;;;;;;;0.20;0.20;;;;;;;17.72;88.50;98633.56;4997166;28;20386;-86
2023/11/03 10:48:50;;;;;;;0.20;0.20;;;;;;;17.99;90.17;98638.75;4996192;28;20029;-86
2023/11/03 10:51:36;;;;;;;0.20;0.20;;;;;;;18.15;86.78;98651.91;4996139;28;20029;-84
2023/11/03 10:54:20;;;;;;;0.20;0.20;;;;;;;18.30;81.29;98660.69;4995578;28;20060;-84
2023/11/03 10:56:47;;;;;;;0.20;0.20;;;;;;;18.18;73.01;98644.59;5005526;28;20549;-88
2023/11/03 10:59:15;;;;;;;0.20;0.20;;;;;;;18.44;69.91;98662.25;4976752;28;20034;-86
2023/11/03 11:02:01;;;;;;;0.20;0.20;;;;;;;18.45;69.68;98675.09;4976835;28;20113;-87
2023/11/03 11:04:42;;;;;;;0.20;0.20;;;;;;;18.60;69.47;98676.19;4993849;28;20045;-87
2023/11/03 11:07:15;;;;;;;0.20;0.20;;;;;;;18.45;69.34;98666.66;4993484;28;20518;-84
2023/11/03 11:09:47;;;;;;;0.20;0.20;;;;;;;18.53;70.76;98670.78;4975914;28;20029;-84
2023/11/03 11:12:13;;;;;;;0.20;0.20;;;;;;;18.50;71.95;98629.47;4976016;28;20034;-84
2023/11/03 11:14:43;;;;;;;0.20;0.20;;;;;;;18.70;72.36;98646.91;4976150;28;20357;-84
2023/11/03 11:17:34;;;;;;;0.20;0.20;;;;;;;18.68;68.02;98655.00;4975564;28;20022;-84
2023/11/03 11:20:03;;;;;;;0.20;0.20;;;;;;;18.64;65.01;98640.22;4993227;28;20030;-85
2023/11/03 11:22:30;;;;;;;0.20;0.20;;;;;;;18.72;65.09;98627.50;4977947;28;20026;-84
2023/11/03 11:25:01;;;;;;;0.20;0.20;;;;;;;19.05;64.34;98661.75;4975200;28;20046;-84
2023/11/03 11:27:28;;;;;;;0.20;0.20;;;;;;;19.52;61.12;98651.59;4975409;28;20057;-84
2023/11/03 11:30:20;;;;;;;0.20;0.20;;;;;;;20.09;59.15;98652.25;4992958;28;20505;-84
2023/11/03 11:32:50;;;;;;;0.20;0.20;;;;;;;20.24;56.84;98667.38;4992634;28;20023;-84
2023/11/03 11:35:18;;;;;;;0.20;0.20;;;;;;;20.49;57.95;98659.94;4992685;28;20037;-87
2023/11/03 11:37:44;;;;;;;0.20;0.20;;;;;;;20.33;58.01;98646.81;4972054;28;20478;-84
2023/11/03 11:40:10;;;;;;;0.20;0.20;;;;;;;19.35;55.31;98622.84;4989461;28;20061;-87
2023/11/03 11:42:45;;;;;;;0.20;0.20;;;;;;;19.85;55.94;98638.66;4972096;28;20035;-85
2023/11/03 11:45:14;;;;;;;0.20;0.20;;;;;;;19.94;56.45;98625.84;4989410;28;20041;-85
2023/11/03 11:47:45;;;;;;;0.20;0.20;;;;;;;20.29;56.12;98632.84;4989520;28;20104;-84
2023/11/03 11:50:16;;;;;;;0.20;0.20;;;;;;;20.26;54.07;98627.34;4988299;28;20356;-84
2023/11/03 11:52:43;;;;;;;0.20;0.20;;;;;;;20.78;52.29;98612.25;4971452;28;20108;-84
2023/11/03 11:55:13;;;;;;;0.20;0.20;;;;;;;21.12;52.25;98628.09;4971233;28;20045;-84
2023/11/03 11:57:40;;;;;;;0.20;0.20;;;;;;;20.91;52.53;98617.75;4988609;28;20050;-84
2023/11/03 12:00:07;;;;;;;0.20;0.20;;;;;;;20.36;52.13;98620.50;4989101;28;20398;-84
2023/11/03 12:02:33;;;;;;;0.20;0.20;;;;;;;20.49;53.08;98631.69;4971130;28;20058;-84
2023/11/03 12:04:59;;;;;;;0.20;0.20;;;;;;;20.21;52.48;98625.94;4989034;28;20614;-86
2023/11/03 12:07:26;;;;;;;0.20;0.20;;;;;;;20.16;52.75;98635.00;4971748;28;20030;-86
2023/11/03 12:09:53;;;;;;;0.20;0.20;;;;;;;19.53;53.12;98620.13;4972187;28;20030;-85
2023/11/03 12:12:28;;;;;;;0.20;0.20;;;;;;;19.34;53.63;98593.84;4988753;28;20026;-86
2023/11/03 12:14:54;;;;;;;0.20;0.20;;;;;;;19.41;53.24;98609.72;4971568;28;20041;-86
2023/11/03 12:17:20;;;;;;;0.20;0.20;;;;;;;19.47;53.56;98612.72;4972551;28;20034;-86
2023/11/03 12:19:49;;;;;;;0.20;0.20;;;;;;;19.55;53.93;98625.31;4971020;28;20034;-86
2023/11/03 12:22:26;;;;;;;0.20;0.20;;;;;;;19.74;53.88;98638.28;4974473;28;20406;-85
2023/11/03 12:24:53;;;;;;;0.20;0.20;;;;;;;19.50;53.21;98642.84;4992247;28;20117;-86
2023/11/03 12:27:23;;;;;;;0.20;0.20;;;;;;;19.68;53.36;98645.78;4992189;28;20019;-86
2023/11/03 12:29:49;;;;;;;0.20;0.20;;;;;;;19.49;53.04;98644.06;4991699;28;20398;-86
2023/11/03 12:32:15;;;;;;;0.20;0.20;;;;;;;19.42;53.07;98639.47;4974818;28;20049;-86
2023/11/03 12:34:42;;;;;;;0.20;0.20;;;;;;;19.37;53.11;98646.50;4974430;28;20025;-86
2023/11/03 12:37:09;;;;;;;0.20;0.20;;;;;;;19.26;53.45;98643.28;4973878;28;20498;-86
2023/11/03 12:39:50;;;;;;;0.20;0.20;;;;;;;18.98;53.57;98616.94;4991862;28;20053;-85
2023/11/03 12:42:17;;;;;;;0.20;0.20;;;;;;;19.08;53.69;98645.97;4975593;28;20030;-88
2023/11/03 12:45:10;;;;;;;0.20;0.20;;;;;;;18.80;54.42;98654.22;4979497;28;20026;-86
2023/11/03 12:47:50;;;;;;;0.20;0.20;;;;;;;18.93;55.32;98659.78;4975681;28;20193;-87
2023/11/03 12:50:23;;;;;;;0.20;0.20;;;;;;;19.19;55.17;98651.22;4974631;28;20269;-86
2023/11/03 12:52:55;;;;;;;0.20;0.20;;;;;;;19.06;55.70;98652.06;4975939;28;20104;-86
2023/11/03 12:55:31;;;;;;;0.20;0.20;;;;;;;19.00;55.16;98641.84;4974019;28;20483;-86
2023/11/03 12:57:57;;;;;;;0.20;0.20;;;;;;;19.08;55.41;98634.72;4968481;28;20086;-85
2023/11/03 13:00:26;;;;;;;0.20;0.20;;;;;;;19.10;55.76;98610.44;4972189;28;20037;-86
2023/11/03 13:02:52;;;;;;;0.20;0.20;;;;;;;18.90;56.05;98615.59;4971111;28;20023;-85
2023/11/03 13:05:17;;;;;;;0.20;0.20;;;;;;;18.94;56.70;98633.19;4972753;28;20027;-87
2023/11/03 13:07:51;;;;;;;0.20;0.20;;;;;;;18.68;59.48;98631.69;4971481;28;20078;-86
2023/11/03 13:10:17;;;;;;;0.20;0.20;;;;;;;18.67;63.72;98639.31;4971131;28;20031;-85
2023/11/03 13:12:43;;;;;;;0.20;0.20;;;;;;;18.60;64.63;98631.13;4981130;28;20026;-85
2023/11/03 13:15:09;;;;;;;0.20;0.20;;;;;;;18.73;64.84;98637.53;5011263;28;20041;-84
2023/11/03 13:17:38;;;;;;;0.20;0.20;;;;;;;18.97;64.98;98651.22;5010258;28;20038;-85
2023/11/03 13:20:07;;;;;;;0.20;0.20;;;;;;;19.31;63.64;98656.78;5008895;28;20037;-85
2023/11/03 13:22:32;;;;;;;0.20;0.20;;;;;;;19.21;62.41;98634.63;5006743;28;20065;-85
2023/11/03 13:24:58;;;;;;;0.20;0.20;;;;;;;19.03;62.23;98624.03;5009373;28;20560;-85
2023/11/03 13:27:24;;;;;;;0.20;0.20;;;;;;;19.21;60.83;98617.72;4994410;28;20027;-85
2023/11/03 13:29:50;;;;;;;0.20;0.20;;;;;;;19.40;60.09;98658.91;4986984;28;20077;-86
2023/11/03 13:32:18;;;;;;;0.20;0.20;;;;;;;19.14;60.72;98627.22;4973607;28;20026;-86
2023/11/03 13:34:44;;;;;;;0.20;0.20;;;;;;;19.29;59.40;98648.03;4991374;28;20109;-85
2023/11/03 13:37:09;;;;;;;0.20;0.20;;;;;;;18.90;58.48;98621.25;4974173;28;20114;-86
2023/11/03 13:39:35;;;;;;;0.20;0.20;;;;;;;18.75;58.14;98643.50;4974247;28;20031;-86
2023/11/03 13:42:01;;;;;;;0.20;0.20;;;;;;;18.97;57.13;98649.19;4973997;28;20035;-86
2023/11/03 13:44:28;;;;;;;0.20;0.20;;;;;;;19.03;56.87;98621.19;4971912;28;20037;-86
2023/11/03 13:46:55;;;;;;;0.20;0.20;;;;;;;19.29;56.87;98642.38;4973231;28;20084;-85
2023/11/03 13:49:20;;;;;;;0.20;0.20;;;;;;;19.34;55.73;98619.22;4977791;28;20030;-85
2023/11/03 13:51:45;;;;;;;0.20;0.20;;;;;;;19.46;56.35;98636.53;5003230;28;20505;-85